Terminal Aerodrome Forecast
Issued by NWS

Home | Current Version | Previous Version | Graphics & Text | Print | Product List | Glossary On
Versions: 1 2 3 4 5 6 7 8 9 10 11 12 13 14 15 16 17 18
000
FTUS43 KABR 151100
TAFPIR
TAF
KPIR 151133Z 1512/1612 13009KT P6SM BKN150
     FM151500 14016G24KT P6SM BKN100
     FM160300 06010KT P6SM OVC100
     FM160600 34015KT P6SM -RA OVC070=

USA.gov is the U.S. government's official web portal to all federal, state and local government web resources and services.